createdAt,value
2022-11-28T00:05:00.362Z,5.77
2022-11-28T00:10:02.042Z,5.71
2022-11-28T00:15:05.264Z,5.78
2022-11-28T00:20:07.418Z,5.77
2022-11-28T00:25:09.120Z,5.71
2022-11-28T00:30:11.294Z,5.77
2022-11-28T00:35:13.199Z,5.68
2022-11-28T00:40:14.771Z,5.75
2022-11-28T00:45:16.365Z,5.77
2022-11-28T00:50:17.966Z,5.73
2022-11-28T00:55:19.496Z,5.67
2022-11-28T01:00:21.427Z,5.78
2022-11-28T01:05:23.026Z,5.61
2022-11-28T01:10:24.584Z,5.71
2022-11-28T01:15:26.153Z,5.84
2022-11-28T01:20:27.715Z,5.73
2022-11-28T01:25:29.386Z,5.81
2022-11-28T01:30:31.090Z,5.81
2022-11-28T01:35:32.626Z,5.80
2022-11-28T01:40:34.268Z,5.75
2022-11-28T01:45:36.060Z,5.77
2022-11-28T01:50:37.975Z,5.75
2022-11-28T01:55:49.534Z,5.72
2022-11-28T02:00:51.509Z,5.66
2022-11-28T02:05:53.366Z,5.67
2022-11-28T02:11:27.340Z,5.66
2022-11-28T02:16:50.135Z,5.60
2022-11-28T02:22:05.456Z,5.60
2022-11-28T02:27:21.921Z,5.52
2022-11-28T02:32:44.389Z,5.54
2022-11-28T02:38:06.664Z,5.48
2022-11-28T02:43:20.465Z,5.59
2022-11-28T02:48:27.427Z,5.54
2022-11-28T02:53:31.104Z,5.51
2022-11-28T02:58:32.642Z,5.45
2022-11-28T03:03:48.693Z,5.35
2022-11-28T03:09:11.460Z,5.36
2022-11-28T03:14:31.752Z,5.40
2022-11-28T03:19:46.444Z,5.30
2022-11-28T03:24:57.931Z,5.35
2022-11-28T03:30:06.705Z,5.33
2022-11-28T03:35:17.971Z,5.31
2022-11-28T03:40:23.971Z,5.29
2022-11-28T03:45:28.409Z,5.19
2022-11-28T03:50:44.863Z,5.12
2022-11-28T03:56:10.181Z,5.24
2022-11-28T04:01:17.836Z,5.16
2022-11-28T04:06:20.171Z,5.06
2022-11-28T04:11:37.659Z,5.11
2022-11-28T04:16:53.773Z,5.08
2022-11-28T04:22:01.388Z,4.99
2022-11-28T04:27:06.417Z,5.05
2022-11-28T04:32:08.538Z,5.06
2022-11-28T04:37:11.094Z,4.96
2022-11-28T04:42:19.539Z,4.96
2022-11-28T04:47:22.364Z,5.00
2022-11-28T04:52:30.393Z,4.97
2022-11-28T04:57:31.875Z,5.03
2022-11-28T05:02:34.603Z,4.93
2022-11-28T05:07:36.296Z,5.00
2022-11-28T05:12:38.235Z,4.96
2022-11-28T05:17:42.524Z,5.00
2022-11-28T05:22:44.256Z,5.25
2022-11-28T05:27:45.800Z,5.23
2022-11-28T05:32:47.423Z,5.11
2022-11-28T05:37:48.969Z,5.13
2022-11-28T05:42:50.515Z,5.16
2022-11-28T05:47:52.095Z,5.13
2022-11-28T05:52:53.644Z,5.15
2022-11-28T05:57:55.278Z,5.07
2022-11-28T06:03:01.287Z,5.03
2022-11-28T06:08:03.386Z,5.18
2022-11-28T06:13:04.955Z,5.25
2022-11-28T06:18:06.577Z,5.26
2022-11-28T06:23:08.216Z,5.24
2022-11-28T06:28:09.755Z,5.28
2022-11-28T06:33:11.512Z,5.27
2022-11-28T06:38:14.473Z,5.35
2022-11-28T06:43:16.221Z,5.33
2022-11-28T06:48:18.019Z,5.40
2022-11-28T06:53:20.114Z,5.46
2022-11-28T06:58:21.664Z,5.46
2022-11-28T07:03:23.217Z,5.44
2022-11-28T07:08:24.816Z,5.46
2022-11-28T07:13:26.513Z,5.51
2022-11-28T07:18:28.147Z,5.43
2022-11-28T07:23:29.767Z,5.52
2022-11-28T07:28:32.489Z,5.57
2022-11-28T07:33:35.106Z,5.61
2022-11-28T07:38:36.669Z,5.59
2022-11-28T07:43:38.809Z,5.69
2022-11-28T07:48:40.700Z,5.70
2022-11-28T07:53:43.266Z,5.69
2022-11-28T07:58:45.844Z,5.66
2022-11-28T08:03:47.884Z,5.72
2022-11-28T08:08:49.898Z,5.73
2022-11-28T08:13:54.984Z,5.78
2022-11-28T08:19:02.837Z,5.79
2022-11-28T08:24:05.217Z,5.82
2022-11-28T08:29:06.784Z,5.90
2022-11-28T08:34:10.639Z,5.87
2022-11-28T08:39:27.808Z,5.92
2022-11-28T08:44:30.739Z,6.02
2022-11-28T08:49:32.707Z,5.94
2022-11-28T08:54:34.301Z,5.95
2022-11-28T08:59:35.910Z,6.01
2022-11-28T09:04:37.476Z,5.92
2022-11-28T09:09:39.088Z,6.05
2022-11-28T09:14:40.946Z,6.10
2022-11-28T09:19:43.181Z,6.22
2022-11-28T09:24:44.979Z,6.02
2022-11-28T09:29:46.534Z,6.21
2022-11-28T09:34:48.166Z,6.34
2022-11-28T09:40:11.949Z,6.29
2022-11-28T09:45:17.416Z,6.36
2022-11-28T09:50:22.075Z,6.38
2022-11-28T09:55:32.270Z,6.45
2022-11-28T10:00:39.063Z,6.54
2022-11-28T10:05:43.826Z,6.46
2022-11-28T10:11:27.394Z,6.46
2022-11-28T10:16:58.699Z,6.36
2022-11-28T10:22:02.974Z,6.52
2022-11-28T10:27:05.781Z,6.53
2022-11-28T10:32:10.827Z,6.52
2022-11-28T10:37:25.711Z,6.62
2022-11-28T10:42:34.994Z,6.65
2022-11-28T10:47:45.596Z,6.74
2022-11-28T10:53:02.975Z,6.75
2022-11-28T10:58:13.993Z,6.77
2022-11-28T11:03:18.098Z,6.72
2022-11-28T11:08:28.204Z,6.69
2022-11-28T11:13:32.724Z,6.80
2022-11-28T11:18:36.342Z,6.88
2022-11-28T11:23:38.594Z,6.93
2022-11-28T11:28:50.290Z,6.97
2022-11-28T11:33:54.200Z,6.84
2022-11-28T11:39:25.689Z,6.85
2022-11-28T11:44:30.039Z,6.90
2022-11-28T11:49:31.527Z,7.03
2022-11-28T11:54:33.470Z,6.98
2022-11-28T11:59:42.398Z,7.05
2022-11-28T12:04:49.947Z,6.99
2022-11-28T12:09:55.763Z,7.02
2022-11-28T12:14:57.649Z,7.06
2022-11-28T12:20:22.865Z,6.94
2022-11-28T12:25:34.289Z,7.13
2022-11-28T12:30:41.904Z,7.11
2022-11-28T12:36:25.652Z,7.06
2022-11-28T12:41:55.819Z,7.12
2022-11-28T12:47:05.924Z,7.09
2022-11-28T12:52:16.190Z,7.08
2022-11-28T12:57:48.033Z,7.11
2022-11-28T13:03:03.976Z,7.07
2022-11-28T13:08:08.558Z,7.12
2022-11-28T13:13:15.927Z,7.10
2022-11-28T13:18:40.696Z,7.20
2022-11-28T13:24:09.610Z,7.16
2022-11-28T13:29:37.450Z,7.16
2022-11-28T13:34:39.357Z,7.08
2022-11-28T13:40:13.341Z,7.02
2022-11-28T13:45:26.723Z,7.03
2022-11-28T13:50:41.495Z,7.01
2022-11-28T13:56:10.569Z,7.02
2022-11-28T14:01:19.280Z,7.00
2022-11-28T14:06:23.370Z,6.77
2022-11-28T14:11:38.939Z,6.90
2022-11-28T14:17:02.841Z,6.78
2022-11-28T14:22:31.177Z,6.86
2022-11-28T14:27:36.624Z,6.80
2022-11-28T14:32:42.388Z,6.81
2022-11-28T14:37:50.202Z,6.80
2022-11-28T14:43:21.821Z,6.82
2022-11-28T14:48:23.585Z,6.81
2022-11-28T14:53:34.508Z,6.73
2022-11-28T14:58:36.104Z,6.75
2022-11-28T15:03:46.099Z,6.68
2022-11-28T15:08:53.595Z,6.65
2022-11-28T15:14:15.156Z,6.72
2022-11-28T15:19:31.045Z,6.68
2022-11-28T15:24:35.028Z,6.68
2022-11-28T15:29:37.017Z,6.68
2022-11-28T15:34:38.776Z,6.69
2022-11-28T15:39:41.495Z,6.63
2022-11-28T15:44:43.998Z,6.59
2022-11-28T15:49:46.747Z,6.65
2022-11-28T15:54:51.404Z,6.60
2022-11-28T15:59:59.339Z,6.51
2022-11-28T16:05:08.746Z,6.51
2022-11-28T16:10:30.561Z,6.57
2022-11-28T16:15:32.216Z,6.57
2022-11-28T16:20:34.676Z,6.57
2022-11-28T16:25:36.833Z,6.50
2022-11-28T16:30:42.694Z,6.45
2022-11-28T16:35:44.482Z,6.49
2022-11-28T16:40:46.115Z,6.53
2022-11-28T16:46:00.048Z,6.52
2022-11-28T16:51:01.680Z,6.54
2022-11-28T16:56:03.337Z,6.54
2022-11-28T17:01:05.221Z,6.52
2022-11-28T17:06:15.077Z,6.57
2022-11-28T17:11:19.212Z,6.57
2022-11-28T17:16:23.222Z,6.47
2022-11-28T17:21:43.780Z,6.56
2022-11-28T17:26:45.925Z,6.59
2022-11-28T17:31:48.751Z,6.53
2022-11-28T17:36:50.815Z,6.55
2022-11-28T17:41:52.425Z,6.58
2022-11-28T17:46:55.352Z,6.59
2022-11-28T17:51:57.794Z,6.52
2022-11-28T17:56:59.384Z,6.62
2022-11-28T18:02:01.169Z,6.74
2022-11-28T18:07:02.920Z,6.77
2022-11-28T18:12:04.707Z,6.77
2022-11-28T18:17:07.188Z,6.76
2022-11-28T18:22:08.855Z,6.75
2022-11-28T18:27:10.746Z,6.75
2022-11-28T18:32:12.430Z,6.75
2022-11-28T18:37:13.994Z,6.79
2022-11-28T18:42:15.577Z,6.74
2022-11-28T18:47:17.155Z,6.71
2022-11-28T18:52:18.802Z,6.64
2022-11-28T18:57:20.598Z,6.82
2022-11-28T19:02:23.305Z,6.69
2022-11-28T19:07:25.285Z,6.80
2022-11-28T19:12:27.765Z,6.85
2022-11-28T19:17:29.422Z,6.76
2022-11-28T19:22:31.194Z,6.81
2022-11-28T19:27:32.730Z,6.80
2022-11-28T19:32:36.194Z,6.76
2022-11-28T19:37:38.329Z,6.76
2022-11-28T19:42:40.003Z,6.61
2022-11-28T19:47:42.363Z,6.74
2022-11-28T19:52:44.165Z,6.68
2022-11-28T19:57:45.853Z,6.62
2022-11-28T20:02:47.565Z,6.67
2022-11-28T20:07:52.178Z,6.49
2022-11-28T20:12:57.470Z,6.68
2022-11-28T20:17:59.046Z,6.68
2022-11-28T20:23:01.574Z,6.61
2022-11-28T20:28:03.177Z,6.61
2022-11-28T20:33:04.803Z,6.63
2022-11-28T20:38:06.409Z,6.64
2022-11-28T20:43:07.961Z,6.66
2022-11-28T20:48:09.538Z,6.72
2022-11-28T20:53:11.082Z,6.76
2022-11-28T20:58:12.701Z,6.74
2022-11-28T21:03:14.748Z,6.78
2022-11-28T21:08:16.651Z,6.71
2022-11-28T21:13:18.200Z,6.70
2022-11-28T21:18:19.776Z,6.71
2022-11-28T21:23:21.336Z,6.69
2022-11-28T21:28:22.922Z,6.76
2022-11-28T21:33:24.460Z,6.78
2022-11-28T21:38:25.998Z,6.73
2022-11-28T21:43:28.521Z,6.77
2022-11-28T21:48:30.598Z,6.80
2022-11-28T21:53:33.164Z,6.81
2022-11-28T21:58:34.708Z,6.80
2022-11-28T22:03:37.280Z,6.75
2022-11-28T22:08:38.843Z,6.80
2022-11-28T22:13:45.863Z,6.70
2022-11-28T22:18:48.693Z,6.80
2022-11-28T22:23:50.891Z,6.80
2022-11-28T22:28:53.895Z,6.82
2022-11-28T22:33:57.580Z,6.77
2022-11-28T22:38:59.452Z,6.76
2022-11-28T22:44:02.401Z,6.78
2022-11-28T22:49:05.290Z,6.78
2022-11-28T22:54:07.109Z,6.85
2022-11-28T22:59:13.382Z,6.84
2022-11-28T23:04:16.195Z,6.72
2022-11-28T23:09:18.392Z,6.79
2022-11-28T23:14:20.106Z,6.81
2022-11-28T23:19:22.458Z,6.82
2022-11-28T23:24:24.164Z,6.81
2022-11-28T23:29:26.968Z,6.76
2022-11-28T23:34:28.585Z,6.83
2022-11-28T23:39:30.162Z,6.84
2022-11-28T23:44:38.486Z,6.71
2022-11-28T23:49:40.087Z,6.75
2022-11-28T23:54:42.010Z,6.75
2022-11-28T23:59:43.804Z,6.78
